createdAt,value
2019-05-18T00:01:36.024Z,99515.59
2019-05-18T00:06:39.817Z,99515.59
2019-05-18T00:11:43.592Z,99523.30
2019-05-18T00:16:47.381Z,99521.45
2019-05-18T00:21:51.250Z,99521.45
2019-05-18T00:26:55.069Z,99518.08
2019-05-18T00:31:58.854Z,99519.19
2019-05-18T00:37:02.628Z,99517.58
2019-05-18T00:42:06.485Z,99517.73
2019-05-18T00:47:10.262Z,99521.27
2019-05-18T00:52:14.081Z,99516.73
2019-05-18T01:07:23.512Z,99498.64
2019-05-18T01:12:27.286Z,99500.33
2019-05-18T01:17:31.071Z,99502.33
2019-05-18T01:22:34.884Z,99488.81
2019-05-18T01:27:38.662Z,99489.81
2019-05-18T01:32:42.443Z,99489.81
2019-05-18T01:37:46.243Z,99489.76
2019-05-18T01:42:50.028Z,99489.68
2019-05-18T01:47:53.817Z,99489.68
2019-05-18T01:52:57.606Z,99492.36
2019-05-18T01:58:01.387Z,99492.31
2019-05-18T02:03:05.174Z,99488.13
2019-05-18T02:08:08.986Z,99482.22
2019-05-18T02:13:12.846Z,99488.63
2019-05-18T02:18:28.207Z,99489.28
2019-05-18T02:23:22.153Z,99470.00
2019-05-18T02:28:26.009Z,99486.74
2019-05-18T02:33:29.854Z,99486.89
2019-05-18T02:38:33.647Z,99479.95
2019-05-18T02:43:37.411Z,99465.47
2019-05-18T02:48:49.292Z,99465.47
2019-05-18T02:53:46.688Z,99460.45
2019-05-18T02:58:50.500Z,99466.27
2019-05-18T03:03:54.262Z,99467.81
2019-05-18T03:08:58.060Z,99466.12
2019-05-18T03:14:01.842Z,99462.73
2019-05-18T03:19:08.704Z,99461.74
2019-05-18T03:24:11.125Z,99465.89
2019-05-18T03:29:15.125Z,99460.90
2019-05-18T03:34:18.934Z,99460.05
2019-05-18T03:39:22.717Z,99459.17
2019-05-18T03:44:26.480Z,99462.50
2019-05-18T03:49:30.277Z,99465.69
2019-05-18T03:54:34.111Z,99474.23
2019-05-18T03:59:37.925Z,99474.23
2019-05-18T04:04:41.723Z,99472.60
2019-05-18T04:09:45.512Z,99474.17
2019-05-18T04:14:49.299Z,99474.17
2019-05-18T04:19:53.099Z,99472.32
2019-05-18T04:24:56.943Z,99475.44
2019-05-18T04:30:00.847Z,99475.93
2019-05-18T04:35:04.733Z,99477.97
2019-05-18T04:40:08.606Z,99477.97
2019-05-18T04:45:12.419Z,99483.49
2019-05-18T04:50:16.287Z,99483.34
2019-05-18T04:55:20.160Z,99483.34
2019-05-18T05:00:24.012Z,99470.50
2019-05-18T05:05:27.910Z,99470.00
2019-05-18T05:10:31.719Z,99470.05
2019-05-18T05:15:35.503Z,99464.91
2019-05-18T05:20:39.386Z,99463.56
2019-05-18T05:25:45.208Z,99463.56
2019-05-18T05:30:49.014Z,99461.92
2019-05-18T05:35:52.813Z,99464.31
2019-05-18T05:40:59.238Z,99453.30
2019-05-18T05:46:03.003Z,99456.48
2019-05-18T05:51:06.819Z,99456.48
2019-05-18T05:56:10.609Z,99455.34
2019-05-18T06:01:14.394Z,99439.22
2019-05-18T06:06:18.190Z,99439.77
2019-05-18T06:11:21.969Z,99447.17
2019-05-18T06:16:25.749Z,99441.53
2019-05-18T06:21:29.543Z,99443.02
2019-05-18T06:26:33.463Z,99438.69
2019-05-18T06:31:37.299Z,99442.38
2019-05-18T06:36:41.063Z,99442.38
2019-05-18T06:41:44.866Z,99449.83
2019-05-18T06:46:48.649Z,99451.55
2019-05-18T06:51:52.451Z,99447.22
2019-05-18T06:56:56.309Z,99447.22
2019-05-18T07:02:00.183Z,99465.36
2019-05-18T07:07:04.128Z,99471.48
2019-05-18T07:12:07.974Z,99473.72
2019-05-18T07:17:11.760Z,99477.69
2019-05-18T07:22:15.524Z,99473.72
2019-05-18T07:27:19.406Z,99463.68
2019-05-18T07:32:23.218Z,99467.33
2019-05-18T07:37:27.068Z,99467.33
2019-05-18T07:42:30.869Z,99453.25
2019-05-18T07:47:34.689Z,99453.25
2019-05-18T07:52:38.553Z,99469.07
2019-05-18T07:57:42.404Z,99458.24
2019-05-18T08:02:46.281Z,99458.24
2019-05-18T08:07:50.088Z,99448.97
2019-05-18T08:12:53.884Z,99454.86
2019-05-18T08:17:57.683Z,99454.86
2019-05-18T08:23:01.471Z,99457.44
2019-05-18T08:28:05.288Z,99457.44
2019-05-18T08:33:09.171Z,99454.14
2019-05-18T08:38:13.186Z,99450.66
2019-05-18T08:43:17.113Z,99450.66
2019-05-18T08:48:21.048Z,99451.66
2019-05-18T08:53:24.849Z,99432.38
2019-05-18T08:58:28.631Z,99447.77
2019-05-18T09:03:32.505Z,99447.28
2019-05-18T09:08:36.308Z,99447.63
2019-05-18T09:13:40.102Z,99447.63
2019-05-18T09:18:43.900Z,99442.88
2019-05-18T09:23:47.690Z,99437.07
2019-05-18T09:28:51.939Z,99438.58
2019-05-18T09:33:55.804Z,99438.58
2019-05-18T09:38:59.592Z,99441.17
2019-05-18T09:44:03.447Z,99439.19
2019-05-18T09:49:07.278Z,99439.77
2019-05-18T09:54:11.093Z,99450.16
2019-05-18T09:59:14.887Z,99447.19
2019-05-18T10:04:18.774Z,99446.14
2019-05-18T10:09:22.697Z,99446.14
2019-05-18T10:14:27.640Z,99444.06
2019-05-18T10:19:31.428Z,99444.06
2019-05-18T10:24:35.238Z,99446.13
2019-05-18T10:29:39.023Z,99440.11
2019-05-18T10:34:42.819Z,99440.45
2019-05-18T10:39:46.693Z,99427.75
2019-05-18T10:44:50.510Z,99427.75
2019-05-18T10:49:54.442Z,99429.36
2019-05-18T10:54:58.337Z,99412.98
2019-05-18T11:00:03.566Z,99412.98
2019-05-18T11:05:07.963Z,99406.06
2019-05-18T11:10:11.883Z,99402.72
2019-05-18T11:15:15.709Z,99402.72
2019-05-18T11:20:19.491Z,99400.95
2019-05-18T11:25:23.334Z,99395.61
2019-05-18T11:30:27.301Z,99392.58
2019-05-18T11:35:31.136Z,99388.50
2019-05-18T11:40:34.916Z,99388.50
2019-05-18T11:45:38.722Z,99380.70
2019-05-18T11:50:42.507Z,99380.70
2019-05-18T11:55:46.280Z,99367.83
2019-05-18T12:00:50.164Z,99367.83
2019-05-18T12:05:53.953Z,99377.63
2019-05-18T12:10:57.736Z,99368.69
2019-05-18T12:16:01.531Z,99368.69
2019-05-18T12:21:05.360Z,99363.07
2019-05-18T12:26:09.146Z,99362.95
2019-05-18T12:31:13.007Z,99368.33
2019-05-18T12:36:16.835Z,99364.30
2019-05-18T12:41:29.834Z,99345.19
2019-05-18T12:46:33.822Z,99345.19
2019-05-18T12:51:37.611Z,99356.70
2019-05-18T12:56:41.423Z,99350.95
2019-05-18T13:01:45.203Z,99350.95
2019-05-18T13:06:49.009Z,99358.38
2019-05-18T13:11:52.769Z,99351.70
2019-05-18T13:16:56.553Z,99357.04
2019-05-18T13:22:00.371Z,99354.51
2019-05-18T13:27:04.240Z,99346.63
2019-05-18T13:32:08.088Z,99342.66
2019-05-18T13:37:11.893Z,99342.66
2019-05-18T13:42:15.736Z,99337.28
2019-05-18T13:47:19.533Z,99337.28
2019-05-18T13:52:23.347Z,99333.62
2019-05-18T13:57:27.168Z,99334.97
2019-05-18T14:02:31.025Z,99329.72
2019-05-18T14:07:34.827Z,99328.11
2019-05-18T14:12:38.633Z,99326.75
2019-05-18T14:17:42.468Z,99336.75
2019-05-18T14:22:46.320Z,99335.19
2019-05-18T14:27:50.194Z,99337.00
2019-05-18T14:32:54.039Z,99334.12
2019-05-18T14:37:57.979Z,99323.06
2019-05-18T14:43:01.898Z,99305.67
2019-05-18T14:48:05.697Z,99321.67
2019-05-18T14:53:09.482Z,99302.14
2019-05-18T14:58:13.260Z,99315.01
2019-05-18T15:03:17.049Z,99315.01
2019-05-18T15:08:20.891Z,99309.71
2019-05-18T15:13:24.766Z,99307.86
2019-05-18T15:18:28.584Z,99307.86
2019-05-18T15:23:32.399Z,99307.86
2019-05-18T15:28:36.194Z,99312.19
2019-05-18T15:33:40.011Z,99312.31
2019-05-18T15:38:43.938Z,99312.31
2019-05-18T15:43:47.733Z,99311.98
2019-05-18T15:48:51.674Z,99304.59
2019-05-18T15:53:55.484Z,99304.59
2019-05-18T15:58:59.274Z,99311.16
2019-05-18T16:04:03.064Z,99311.16
2019-05-18T16:09:07.040Z,99304.59
2019-05-18T16:14:10.847Z,99310.15
2019-05-18T16:19:14.672Z,99307.64
2019-05-18T16:24:18.463Z,99307.46
2019-05-18T16:29:22.700Z,99304.59
2019-05-18T16:34:26.684Z,99289.40
2019-05-18T16:39:30.471Z,99305.80
2019-05-18T16:44:34.273Z,99305.80
2019-05-18T16:49:38.100Z,99312.25
2019-05-18T16:54:41.953Z,99307.72
2019-05-18T16:59:45.774Z,99312.68
2019-05-18T17:04:49.603Z,99312.68
2019-05-18T17:09:53.410Z,99309.99
2019-05-18T17:14:57.210Z,99295.59
2019-05-18T17:20:01.038Z,99295.59
2019-05-18T17:25:05.051Z,99305.33
2019-05-18T17:30:08.896Z,99293.34
2019-05-18T17:35:13.169Z,99293.41
2019-05-18T17:40:17.155Z,99292.05
2019-05-18T17:45:20.997Z,99292.05
2019-05-18T17:50:24.783Z,99295.17
2019-05-18T17:55:28.550Z,99301.98
2019-05-18T18:00:32.397Z,99297.86
2019-05-18T18:05:36.291Z,99281.63
2019-05-18T18:10:40.119Z,99283.98
2019-05-18T18:15:43.896Z,99300.65
2019-05-18T18:20:47.697Z,99297.62
2019-05-18T18:25:51.480Z,99302.81
2019-05-18T18:30:55.495Z,99302.92
2019-05-18T18:35:59.318Z,99305.77
2019-05-18T18:41:03.105Z,99305.77
2019-05-18T18:46:07.544Z,99307.63
2019-05-18T18:51:11.327Z,99315.45
2019-05-18T18:56:15.194Z,99315.93
2019-05-18T19:01:19.068Z,99315.93
2019-05-18T19:06:22.879Z,99322.34
2019-05-18T19:11:26.718Z,99329.41
2019-05-18T19:16:30.588Z,99327.56
2019-05-18T19:21:34.383Z,99338.16
2019-05-18T19:26:38.159Z,99347.39
2019-05-18T19:31:42.072Z,99343.59
2019-05-18T19:36:45.876Z,99343.59
2019-05-18T19:41:49.668Z,99349.84
2019-05-18T19:46:53.510Z,99349.84
2019-05-18T19:51:57.353Z,99365.74
2019-05-18T19:57:01.261Z,99367.41
2019-05-18T20:02:05.139Z,99370.94
2019-05-18T20:07:08.969Z,99372.78
2019-05-18T20:12:12.743Z,99370.25
2019-05-18T20:17:16.680Z,99376.98
2019-05-18T20:22:20.483Z,99376.98
2019-05-18T20:27:24.278Z,99371.91
2019-05-18T20:32:28.110Z,99382.67
2019-05-18T20:37:31.971Z,99382.67
2019-05-18T20:42:37.605Z,99385.52
2019-05-18T20:47:41.665Z,99374.89
2019-05-18T20:52:45.548Z,99375.61
2019-05-18T20:57:49.339Z,99374.89
2019-05-18T21:02:53.141Z,99374.89
2019-05-18T21:07:56.977Z,99372.86
2019-05-18T21:13:00.939Z,99377.45
2019-05-18T21:18:04.741Z,99377.45
2019-05-18T21:23:08.510Z,99377.05
2019-05-18T21:28:12.308Z,99377.05
2019-05-18T21:33:16.167Z,99379.89
2019-05-18T21:38:20.002Z,99376.70
2019-05-18T21:43:23.869Z,99379.05
2019-05-18T21:48:27.661Z,99368.80
2019-05-18T21:53:31.536Z,99360.22
2019-05-18T21:58:35.332Z,99360.22
2019-05-18T22:03:39.108Z,99339.28
2019-05-18T22:08:42.930Z,99358.54
2019-05-18T22:13:47.411Z,99352.94
2019-05-18T22:18:51.187Z,99351.94
2019-05-18T22:23:55.069Z,99351.47
2019-05-18T22:28:58.873Z,99348.91
2019-05-18T22:34:02.720Z,99348.06
2019-05-18T22:39:07.090Z,99349.41
2019-05-18T22:44:10.971Z,99346.37
2019-05-18T22:49:14.857Z,99341.50
2019-05-18T22:54:18.771Z,99315.68
2019-05-18T22:59:22.546Z,99328.55
2019-05-18T23:04:26.336Z,99335.80
2019-05-18T23:09:30.232Z,99333.09
2019-05-18T23:14:34.014Z,99333.93
2019-05-18T23:19:37.806Z,99334.77
2019-05-18T23:24:41.648Z,99325.52
2019-05-18T23:29:45.488Z,99325.52
2019-05-18T23:34:49.285Z,99317.95
2019-05-18T23:39:53.079Z,99317.27
2019-05-18T23:44:56.864Z,99307.86
2019-05-18T23:50:00.643Z,99307.86
2019-05-18T23:55:05.267Z,99303.83
